Time;durP1;ratioP1;P1;durP2;ratioP2;P2;SDS_P1;SDS_P2;PMS_P1;PMS_P2;Temp;Humidity;BMP_temperature;BMP_pressure;BME280_temperature;BME280_humidity;BME280_pressure;Samples;Min_cycle;Max_cycle;Signal;HPM_P1;HPM_P2
2023/06/18 00:00:11;;;;;;;19.57;12.47;;;15.20;83.50;;;;;;5046601;28;20478;-68
2023/06/18 00:02:40;;;;;;;13.13;11.93;;;15.20;82.80;;;;;;5029652;28;20481;-69
2023/06/18 00:05:09;;;;;;;14.30;11.97;;;15.30;82.30;;;;;;5044503;28;20450;-69
2023/06/18 00:07:37;;;;;;;13.07;11.90;;;15.30;82.00;;;;;;5049458;28;20492;-70
2023/06/18 00:10:08;;;;;;;15.50;11.83;;;15.30;85.60;;;;;;5040941;28;20447;-70
2023/06/18 00:12:36;;;;;;;12.03;10.93;;;15.20;82.80;;;;;;5032028;28;20577;-69
2023/06/18 00:15:04;;;;;;;12.03;10.80;;;15.20;82.60;;;;;;5031185;28;20685;-69
2023/06/18 00:17:33;;;;;;;13.57;12.40;;;15.30;81.70;;;;;;5029795;28;20504;-68
2023/06/18 00:20:01;;;;;;;13.60;12.30;;;15.30;81.20;;;;;;5030143;28;20459;-69
2023/06/18 00:22:29;;;;;;;13.53;12.03;;;15.30;81.50;;;;;;5029082;28;20948;-69
2023/06/18 00:24:57;;;;;;;12.27;11.10;;;15.20;82.10;;;;;;5029878;28;20512;-69
2023/06/18 00:27:26;;;;;;;12.70;11.40;;;15.10;85.50;;;;;;5031225;28;20445;-69
2023/06/18 00:29:56;;;;;;;12.70;11.50;;;15.00;82.70;;;;;;5035183;28;20436;-69
2023/06/18 00:32:25;;;;;;;14.67;12.63;;;14.90;88.90;;;;;;5035026;28;20496;-69
2023/06/18 00:34:53;;;;;;;13.67;12.10;;;14.90;87.60;;;;;;5035320;28;20433;-69
2023/06/18 00:37:21;;;;;;;15.00;13.40;;;14.90;86.30;;;;;;5030507;28;21012;-69
2023/06/18 00:39:50;;;;;;;14.80;13.50;;;14.90;85.50;;;;;;5030264;28;20889;-69
2023/06/18 00:42:18;;;;;;;13.87;12.70;;;14.80;90.20;;;;;;5029687;28;20464;-69
2023/06/18 00:44:48;;;;;;;13.90;12.60;;;14.70;90.40;;;;;;5029267;28;20480;-69
2023/06/18 00:47:19;;;;;;;13.77;12.40;;;14.60;90.30;;;;;;5031061;28;20449;-69
2023/06/18 00:49:47;;;;;;;14.70;13.37;;;14.50;91.10;;;;;;5029956;28;20965;-69
2023/06/18 00:52:15;;;;;;;13.90;12.50;;;14.40;90.30;;;;;;5031525;28;20940;-69
2023/06/18 00:54:45;;;;;;;14.03;12.73;;;14.40;90.40;;;;;;5033039;28;20529;-69
2023/06/18 00:57:14;;;;;;;13.90;12.70;;;14.30;90.90;;;;;;5033224;28;20495;-69
2023/06/18 00:59:43;;;;;;;12.47;11.27;;;14.20;91.20;;;;;;5034306;28;20547;-68
2023/06/18 01:02:13;;;;;;;13.10;12.00;;;14.30;92.20;;;;;;5033777;28;20459;-69
2023/06/18 01:04:45;;;;;;;14.13;12.83;;;14.20;92.30;;;;;;5033310;28;20476;-69
2023/06/18 01:07:14;;;;;;;13.10;11.90;;;14.20;91.90;;;;;;5033584;28;20433;-69
2023/06/18 01:09:53;;;;;;;13.37;12.07;;;14.30;90.80;;;;;;5034814;28;20486;-69
2023/06/18 01:12:22;;;;;;;13.10;11.87;;;14.30;92.80;;;;;;5032052;28;20555;-69
2023/06/18 01:14:51;;;;;;;13.50;12.17;;;14.20;92.40;;;;;;5035642;28;20441;-69
2023/06/18 01:17:22;;;;;;;13.20;11.90;;;14.20;92.70;;;;;;5034700;28;20540;-69
2023/06/18 01:19:56;;;;;;;12.40;11.20;;;14.10;92.60;;;;;;5044992;28;20922;-68
2023/06/18 01:22:33;;;;;;;14.33;12.83;;;14.10;91.90;;;;;;5038384;28;20649;-69
2023/06/18 01:25:03;;;;;;;13.13;12.07;;;14.00;92.10;;;;;;5050018;28;20493;-69
2023/06/18 01:27:33;;;;;;;12.90;11.70;;;14.00;92.20;;;;;;5049077;28;20451;-70
2023/06/18 01:30:03;;;;;;;12.23;11.17;;;13.90;92.70;;;;;;5037356;28;20447;-69
2023/06/18 01:32:32;;;;;;;13.43;11.83;;;14.00;92.90;;;;;;5030909;28;20555;-69
2023/06/18 01:35:01;;;;;;;12.57;11.23;;;13.90;93.20;;;;;;5031810;28;20447;-68
2023/06/18 01:37:43;;;;;;;14.17;12.77;;;13.70;92.80;;;;;;5032371;28;20850;-69
2023/06/18 01:40:34;;;;;;;13.23;12.03;;;13.70;93.00;;;;;;5031839;28;20482;-69
2023/06/18 01:43:11;;;;;;;14.30;12.90;;;13.70;94.30;;;;;;5029687;28;20468;-69
2023/06/18 01:45:47;;;;;;;15.93;14.53;;;13.80;94.60;;;;;;5031639;28;21083;-68
2023/06/18 01:48:20;;;;;;;13.80;12.60;;;13.80;94.80;;;;;;5031981;28;20535;-69
2023/06/18 01:50:50;;;;;;;14.17;12.90;;;13.80;95.20;;;;;;5042244;28;20469;-69
2023/06/18 01:53:21;;;;;;;15.80;12.57;;;13.70;94.90;;;;;;5043653;28;21015;-69
2023/06/18 01:55:52;;;;;;;15.03;13.63;;;13.70;93.80;;;;;;5051959;28;20436;-69
2023/06/18 01:58:22;;;;;;;13.70;12.50;;;13.60;94.20;;;;;;5050913;28;20440;-69
2023/06/18 02:00:51;;;;;;;14.77;13.47;;;13.60;94.20;;;;;;5051436;28;20549;-69
2023/06/18 02:03:21;;;;;;;15.13;13.80;;;13.50;96.40;;;;;;5049393;28;20452;-69
2023/06/18 02:05:50;;;;;;;15.67;14.17;;;13.40;95.90;;;;;;5051488;28;20920;-69
2023/06/18 02:08:18;;;;;;;16.13;14.73;;;13.50;97.00;;;;;;5051492;28;20880;-69
2023/06/18 02:10:46;;;;;;;15.00;13.70;;;13.50;97.60;;;;;;5048551;28;20478;-68
2023/06/18 02:13:14;;;;;;;14.73;12.87;;;13.70;96.00;;;;;;5030433;28;20472;-68
2023/06/18 02:15:43;;;;;;;15.97;14.40;;;13.70;96.50;;;;;;5031244;28;20455;-69
2023/06/18 02:18:11;;;;;;;14.60;13.30;;;13.60;97.90;;;;;;5030353;28;20547;-69
2023/06/18 02:20:42;;;;;;;15.80;14.30;;;13.60;97.20;;;;;;5031269;28;20816;-69
2023/06/18 02:23:10;;;;;;;14.20;12.90;;;13.60;97.50;;;;;;5029955;28;20498;-68
2023/06/18 02:25:39;;;;;;;14.23;13.03;;;13.50;96.20;;;;;;5030846;28;20885;-69
2023/06/18 02:28:07;;;;;;;13.97;12.40;;;13.50;97.60;;;;;;5031100;28;20809;-69
2023/06/18 02:30:35;;;;;;;15.93;14.37;;;13.40;97.10;;;;;;5030920;28;21071;-68
2023/06/18 02:33:06;;;;;;;15.30;14.00;;;13.40;97.70;;;;;;5030257;28;20946;-69
2023/06/18 02:35:34;;;;;;;14.33;13.07;;;13.30;98.30;;;;;;5031133;28;20953;-69
2023/06/18 02:38:04;;;;;;;15.40;13.90;;;13.30;99.30;;;;;;5031348;28;20441;-69
2023/06/18 02:40:32;;;;;;;14.90;13.50;;;13.40;98.60;;;;;;5030266;28;20458;-69
2023/06/18 02:43:04;;;;;;;15.13;13.77;;;13.40;98.90;;;;;;5029826;28;20468;-69
2023/06/18 02:45:32;;;;;;;14.80;13.23;;;13.50;97.50;;;;;;5031014;28;21016;-69
2023/06/18 02:48:00;;;;;;;14.80;13.30;;;13.50;97.80;;;;;;5031173;28;20451;-69
2023/06/18 02:50:28;;;;;;;14.43;12.73;;;13.40;97.80;;;;;;5031145;28;20534;-69
2023/06/18 02:52:56;;;;;;;14.77;12.50;;;13.40;97.80;;;;;;5029182;28;20943;-69
2023/06/18 02:55:26;;;;;;;13.63;12.23;;;13.30;97.90;;;;;;5030999;28;20485;-69
2023/06/18 02:57:54;;;;;;;14.83;13.43;;;13.40;97.20;;;;;;5035378;28;20472;-68
2023/06/18 03:00:22;;;;;;;13.40;12.20;;;13.40;97.50;;;;;;5050548;28;20840;-69
2023/06/18 03:02:51;;;;;;;13.93;12.63;;;13.30;97.30;;;;;;5049285;28;20466;-69
2023/06/18 03:05:20;;;;;;;15.47;12.30;;;13.30;96.70;;;;;;5031825;28;20875;-69
2023/06/18 03:07:48;;;;;;;14.47;12.57;;;13.30;96.80;;;;;;5030411;28;20444;-69
2023/06/18 03:10:16;;;;;;;14.13;12.83;;;13.30;96.70;;;;;;5030315;28;20455;-70
2023/06/18 03:12:45;;;;;;;14.40;12.90;;;13.20;97.50;;;;;;5029459;28;20703;-69
2023/06/18 03:15:13;;;;;;;14.00;12.67;;;13.20;96.30;;;;;;5029397;28;20502;-69
2023/06/18 03:17:41;;;;;;;15.90;14.30;;;13.20;97.00;;;;;;5030022;28;20452;-69
2023/06/18 03:20:11;;;;;;;14.17;12.83;;;13.10;96.70;;;;;;5030333;28;21019;-70
2023/06/18 03:22:39;;;;;;;14.80;13.57;;;13.20;97.00;;;;;;5029153;28;20997;-69
2023/06/18 03:25:08;;;;;;;14.70;13.40;;;13.20;96.70;;;;;;5029530;28;20572;-70
2023/06/18 03:27:36;;;;;;;15.73;14.10;;;13.20;97.50;;;;;;5030301;28;20468;-71
2023/06/18 03:30:07;;;;;;;14.30;12.90;;;13.30;97.80;;;;;;5029831;28;20448;-69
2023/06/18 03:32:35;;;;;;;13.20;12.00;;;13.20;96.20;;;;;;5029075;28;20465;-69
2023/06/18 03:35:05;;;;;;;12.77;11.67;;;13.10;96.90;;;;;;5030313;28;20444;-69
2023/06/18 03:37:33;;;;;;;14.47;12.97;;;13.10;96.30;;;;;;5029592;28;20436;-69
2023/06/18 03:40:03;;;;;;;14.13;12.83;;;13.10;96.80;;;;;;5030206;28;20512;-70
2023/06/18 03:42:31;;;;;;;13.63;12.40;;;13.10;95.90;;;;;;5028909;28;20523;-69
2023/06/18 03:44:59;;;;;;;12.60;11.53;;;13.20;95.80;;;;;;5029801;28;20597;-68
2023/06/18 03:47:28;;;;;;;14.50;13.30;;;13.20;96.90;;;;;;5029839;28;20449;-70
2023/06/18 03:49:57;;;;;;;13.33;12.13;;;13.10;97.40;;;;;;5030010;28;20828;-69
2023/06/18 03:52:25;;;;;;;13.40;12.20;;;13.10;96.20;;;;;;5028914;28;20576;-68
2023/06/18 03:54:53;;;;;;;13.47;12.27;;;13.20;97.80;;;;;;5029750;28;20524;-69
2023/06/18 03:57:21;;;;;;;13.30;12.07;;;13.30;96.50;;;;;;5029820;28;20939;-69
2023/06/18 03:59:51;;;;;;;14.47;13.17;;;13.20;96.10;;;;;;5029606;28;20946;-69
2023/06/18 04:02:19;;;;;;;13.63;12.27;;;13.30;96.90;;;;;;5029235;28;20539;-69
2023/06/18 04:04:49;;;;;;;13.30;12.10;;;13.30;97.80;;;;;;5029254;28;20450;-69
2023/06/18 04:07:17;;;;;;;13.10;11.90;;;13.50;96.90;;;;;;5029392;28;20987;-69
2023/06/18 04:09:45;;;;;;;12.57;11.57;;;13.60;96.70;;;;;;5029681;28;20818;-68
2023/06/18 04:12:13;;;;;;;13.30;11.73;;;13.60;96.40;;;;;;5029306;28;20473;-68
2023/06/18 04:14:41;;;;;;;13.50;12.37;;;13.60;94.80;;;;;;5029014;28;20487;-68
2023/06/18 04:17:09;;;;;;;13.07;11.70;;;13.60;94.80;;;;;;5029676;28;20513;-69
2023/06/18 04:19:37;;;;;;;14.43;13.03;;;13.60;95.00;;;;;;5029854;28;20868;-69
2023/06/18 04:22:07;;;;;;;12.53;11.43;;;13.90;95.90;;;;;;5029180;28;20514;-68
2023/06/18 04:24:35;;;;;;;12.73;11.53;;;14.10;95.80;;;;;;5028832;28;20440;-69
2023/06/18 04:27:04;;;;;;;13.17;11.97;;;14.20;96.00;;;;;;5031536;28;20559;-69
2023/06/18 04:29:32;;;;;;;13.00;11.90;;;14.20;94.90;;;;;;5033623;28;20507;-69
2023/06/18 04:32:00;;;;;;;13.10;11.90;;;14.30;94.20;;;;;;5033206;28;20507;-69
2023/06/18 04:34:28;;;;;;;14.73;13.43;;;14.30;93.20;;;;;;5032888;28;20452;-69
2023/06/18 04:36:56;;;;;;;12.20;11.13;;;14.30;93.50;;;;;;5033232;28;20969;-69
2023/06/18 04:39:25;;;;;;;12.13;11.10;;;14.30;93.00;;;;;;5033726;28;20505;-69
2023/06/18 04:41:53;;;;;;;12.60;11.50;;;14.50;93.20;;;;;;5032515;28;20504;-69
2023/06/18 04:44:21;;;;;;;13.20;12.03;;;14.70;92.90;;;;;;5031328;28;20946;-69
2023/06/18 04:46:49;;;;;;;12.73;11.63;;;14.90;93.10;;;;;;5033152;28;20488;-68
2023/06/18 04:49:17;;;;;;;12.17;11.07;;;15.00;92.20;;;;;;5033180;28;20939;-68
2023/06/18 04:51:46;;;;;;;12.60;11.33;;;15.10;91.40;;;;;;5033185;28;20476;-69
2023/06/18 04:54:13;;;;;;;12.97;11.77;;;15.30;91.60;;;;;;5031858;28;20548;-69
2023/06/18 04:56:43;;;;;;;12.60;11.60;;;15.50;93.70;;;;;;5033291;28;20445;-69
2023/06/18 04:59:11;;;;;;;11.83;10.73;;;15.80;92.60;;;;;;5032916;28;21094;-69
2023/06/18 05:01:39;;;;;;;11.87;10.67;;;15.90;91.00;;;;;;5033004;28;20986;-70
2023/06/18 05:04:07;;;;;;;12.37;11.27;;;16.10;90.50;;;;;;5031963;28;20495;-69
2023/06/18 05:06:35;;;;;;;12.87;11.60;;;16.20;90.10;;;;;;5032490;28;20584;-70
2023/06/18 05:09:03;;;;;;;10.90;9.90;;;16.30;90.00;;;;;;5032934;28;20444;-70
2023/06/18 05:11:32;;;;;;;11.50;10.30;;;16.40;88.90;;;;;;5032588;28;20472;-69
2023/06/18 05:14:03;;;;;;;11.53;10.53;;;16.40;90.10;;;;;;5031924;28;20497;-70
2023/06/18 05:16:31;;;;;;;11.57;10.30;;;16.40;88.80;;;;;;5032561;28;20437;-70
2023/06/18 05:18:59;;;;;;;12.50;11.40;;;16.40;90.30;;;;;;5032702;28;20942;-70
2023/06/18 05:21:27;;;;;;;12.77;10.00;;;16.30;88.00;;;;;;5032097;28;20978;-69
2023/06/18 05:23:55;;;;;;;11.10;10.20;;;16.40;88.50;;;;;;5031355;28;20439;-69
2023/06/18 05:26:23;;;;;;;10.63;9.73;;;16.40;89.10;;;;;;5032550;28;20868;-69
2023/06/18 05:28:51;;;;;;;10.80;9.90;;;16.40;89.30;;;;;;5032429;28;20536;-70
2023/06/18 05:31:20;;;;;;;12.53;11.40;;;16.50;90.00;;;;;;5032340;28;20456;-69
2023/06/18 05:33:48;;;;;;;11.77;10.67;;;16.50;88.50;;;;;;5030871;28;20502;-69
2023/06/18 05:36:17;;;;;;;10.37;9.57;;;16.60;88.40;;;;;;5032421;28;20986;-69
2023/06/18 05:38:45;;;;;;;11.40;10.30;;;16.70;89.60;;;;;;5031045;28;20497;-70
2023/06/18 05:41:13;;;;;;;10.87;9.90;;;16.70;88.50;;;;;;5032124;28;20522;-69
2023/06/18 05:43:41;;;;;;;11.50;10.57;;;16.70;88.10;;;;;;5031099;28;20483;-70
2023/06/18 05:46:09;;;;;;;11.10;10.00;;;16.80;86.00;;;;;;5032352;28;20482;-70
2023/06/18 05:48:38;;;;;;;11.67;10.60;;;16.90;86.80;;;;;;5032083;28;20495;-68
2023/06/18 05:51:06;;;;;;;11.83;10.90;;;16.90;90.10;;;;;;5032156;28;20563;-68
2023/06/18 05:53:34;;;;;;;10.60;9.70;;;17.00;88.80;;;;;;5031055;28;20460;-69
2023/06/18 05:56:02;;;;;;;11.57;10.50;;;17.10;85.30;;;;;;5032021;28;20875;-69
2023/06/18 05:58:30;;;;;;;11.63;10.37;;;17.10;85.20;;;;;;5032069;28;20448;-69
2023/06/18 06:00:58;;;;;;;9.97;9.07;;;17.20;85.10;;;;;;5031716;28;20559;-69
2023/06/18 06:03:26;;;;;;;10.57;9.77;;;17.30;83.00;;;;;;5030703;28;20441;-69
2023/06/18 06:05:56;;;;;;;10.50;9.60;;;17.30;82.50;;;;;;5031662;28;20441;-69
2023/06/18 06:08:24;;;;;;;10.73;9.73;;;17.40;85.70;;;;;;5031778;28;20866;-69
2023/06/18 06:10:52;;;;;;;10.73;9.73;;;17.50;83.40;;;;;;5031742;28;20469;-68
2023/06/18 06:13:20;;;;;;;10.80;9.80;;;17.60;83.40;;;;;;5030176;28;20821;-69
2023/06/18 06:15:48;;;;;;;10.83;9.93;;;17.80;81.30;;;;;;5031692;28;20886;-68
2023/06/18 06:18:17;;;;;;;11.17;10.17;;;17.90;80.60;;;;;;5031700;28;20459;-68
2023/06/18 06:20:45;;;;;;;10.20;9.23;;;18.00;80.30;;;;;;5031275;28;20877;-68
2023/06/18 06:23:14;;;;;;;10.63;9.73;;;18.20;80.00;;;;;;5029834;28;20448;-68
2023/06/18 06:25:42;;;;;;;11.87;10.87;;;18.40;80.80;;;;;;5031414;28;20988;-68
2023/06/18 06:28:11;;;;;;;10.67;9.87;;;18.50;75.70;;;;;;5031144;28;20484;-68
2023/06/18 06:30:39;;;;;;;11.27;10.10;;;18.70;78.90;;;;;;5031484;28;20448;-69
2023/06/18 06:33:07;;;;;;;10.70;9.70;;;18.70;74.30;;;;;;5030418;28;20563;-68
2023/06/18 06:35:36;;;;;;;11.10;10.20;;;18.80;75.00;;;;;;5031431;28;20487;-68
2023/06/18 06:38:04;;;;;;;10.70;9.60;;;19.00;76.90;;;;;;5031335;28;20436;-68
2023/06/18 06:40:34;;;;;;;10.63;9.73;;;19.10;74.70;;;;;;5030684;28;20456;-68
2023/06/18 06:43:02;;;;;;;10.47;9.60;;;19.20;75.20;;;;;;5029932;28;20503;-68
2023/06/18 06:45:30;;;;;;;9.83;8.97;;;19.40;71.40;;;;;;5030700;28;20895;-70
2023/06/18 06:47:58;;;;;;;11.47;10.57;;;19.40;72.10;;;;;;5030712;28;20488;-68
2023/06/18 06:50:26;;;;;;;11.70;10.63;;;19.60;74.30;;;;;;5030442;28;20445;-69
2023/06/18 06:52:54;;;;;;;11.70;10.70;;;19.70;70.70;;;;;;5029804;28;20545;-69
2023/06/18 06:55:23;;;;;;;11.40;10.37;;;19.80;70.30;;;;;;5031041;28;20499;-68
2023/06/18 06:57:52;;;;;;;10.90;10.00;;;19.90;70.70;;;;;;5030728;28;20528;-68
2023/06/18 07:00:20;;;;;;;10.37;9.57;;;20.00;69.70;;;;;;5031234;28;20488;-69
2023/06/18 07:02:49;;;;;;;9.87;9.07;;;20.10;67.80;;;;;;5029437;28;20835;-69
2023/06/18 07:05:17;;;;;;;11.13;10.13;;;20.30;70.90;;;;;;5030987;28;20453;-69
2023/06/18 07:07:46;;;;;;;10.73;9.83;;;20.50;67.50;;;;;;5030401;28;20477;-68
2023/06/18 07:10:17;;;;;;;11.80;10.80;;;20.60;66.60;;;;;;5030752;28;20432;-68
2023/06/18 07:12:45;;;;;;;11.50;10.53;;;20.70;67.70;;;;;;5029374;28;20509;-68
2023/06/18 07:15:14;;;;;;;11.47;10.47;;;20.90;64.70;;;;;;5031013;28;20548;-68
2023/06/18 07:17:42;;;;;;;11.87;10.90;;;21.20;66.10;;;;;;5030501;28;20448;-69
2023/06/18 07:20:14;;;;;;;11.10;10.30;;;21.40;63.70;;;;;;5030191;28;20441;-67
2023/06/18 07:22:42;;;;;;;11.73;10.73;;;21.60;63.30;;;;;;5029417;28;21263;-67
2023/06/18 07:25:10;;;;;;;10.53;9.67;;;21.70;62.70;;;;;;5030477;28;20445;-67
2023/06/18 07:27:38;;;;;;;10.43;9.50;;;22.00;61.30;;;;;;5030695;28;20526;-67
2023/06/18 07:30:07;;;;;;;10.83;9.97;;;22.20;59.60;;;;;;5030780;28;20441;-67
2023/06/18 07:32:37;;;;;;;11.00;10.10;;;22.20;59.60;;;;;;5029337;28;20472;-68
2023/06/18 07:35:06;;;;;;;10.27;9.50;;;22.40;58.00;;;;;;5030459;28;20448;-66
2023/06/18 07:37:34;;;;;;;11.23;10.43;;;22.50;57.70;;;;;;5030777;28;20441;-68
2023/06/18 07:40:03;;;;;;;11.80;10.80;;;22.70;57.30;;;;;;5034501;28;20463;-68
2023/06/18 07:42:32;;;;;;;10.77;9.80;;;22.80;58.30;;;;;;5052496;28;20962;-68
2023/06/18 07:45:00;;;;;;;11.57;10.67;;;22.80;57.00;;;;;;5050264;28;20531;-68
2023/06/18 07:47:28;;;;;;;11.40;10.23;;;22.80;57.70;;;;;;5049800;28;20478;-68
2023/06/18 07:49:58;;;;;;;10.47;9.67;;;23.00;57.30;;;;;;5050466;28;20539;-68
2023/06/18 07:52:26;;;;;;;11.50;10.50;;;23.10;55.60;;;;;;5049445;28;20556;-68
2023/06/18 07:54:54;;;;;;;11.90;10.90;;;23.30;54.10;;;;;;5049574;28;20942;-66
2023/06/18 07:57:22;;;;;;;10.40;9.43;;;23.60;53.40;;;;;;5050248;28;20436;-68
2023/06/18 07:59:50;;;;;;;11.97;11.07;;;23.80;52.70;;;;;;5049968;28;20446;-68
2023/06/18 08:02:18;;;;;;;10.60;9.70;;;23.90;52.50;;;;;;5047844;28;21091;-69
2023/06/18 08:04:46;;;;;;;11.20;10.20;;;24.00;51.60;;;;;;5049158;28;20288;-70
2023/06/18 08:07:16;;;;;;;10.90;10.00;;;24.00;51.40;;;;;;5049862;28;20520;-73
2023/06/18 08:09:44;;;;;;;10.30;9.47;;;24.20;49.40;;;;;;5049695;28;20439;-69
2023/06/18 08:12:12;;;;;;;10.50;9.70;;;24.40;50.80;;;;;;5048995;28;20471;-68
2023/06/18 08:14:40;;;;;;;11.00;10.00;;;24.60;47.20;;;;;;5048688;28;20450;-69
2023/06/18 08:17:08;;;;;;;10.43;9.53;;;24.60;47.50;;;;;;5049478;28;20824;-70
2023/06/18 08:19:36;;;;;;;10.50;9.70;;;24.60;47.30;;;;;;5049345;28;20435;-70
2023/06/18 08:22:05;;;;;;;10.90;10.00;;;24.80;48.50;;;;;;5049033;28;20464;-69
2023/06/18 08:24:35;;;;;;;10.87;9.83;;;25.00;49.00;;;;;;5048338;28;20450;-70
2023/06/18 08:27:03;;;;;;;11.23;10.03;;;25.10;48.20;;;;;;5048727;28;20443;-70
2023/06/18 08:29:31;;;;;;;10.70;9.80;;;25.30;46.00;;;;;;5048948;28;20888;-69
2023/06/18 08:32:04;;;;;;;10.03;9.23;;;25.40;47.00;;;;;;5048220;28;20455;-69
2023/06/18 08:34:32;;;;;;;10.30;9.17;;;25.50;47.60;;;;;;5046813;28;20509;-69
2023/06/18 08:37:01;;;;;;;10.43;9.70;;;25.70;45.10;;;;;;5048046;28;20442;-70
2023/06/18 08:39:30;;;;;;;10.60;9.60;;;25.80;46.00;;;;;;5049114;28;20443;-68
2023/06/18 08:42:00;;;;;;;9.63;8.90;;;26.10;46.60;;;;;;5045204;28;21281;-69
2023/06/18 08:44:28;;;;;;;9.40;8.70;;;26.30;47.50;;;;;;5039704;28;20483;-68
2023/06/18 08:47:00;;;;;;;12.67;10.33;;;26.50;46.80;;;;;;5034301;28;20507;-68
2023/06/18 08:49:28;;;;;;;10.83;9.90;;;26.70;46.80;;;;;;5048397;28;20476;-69
2023/06/18 08:52:00;;;;;;;10.67;9.73;;;26.80;44.40;;;;;;5047273;28;20460;-70
2023/06/18 08:54:32;;;;;;;11.47;10.57;;;26.90;45.00;;;;;;5036440;28;20455;-68
2023/06/18 08:57:11;;;;;;;11.90;10.70;;;26.70;44.50;;;;;;5036119;28;20444;-70
2023/06/18 08:59:41;;;;;;;10.60;9.60;;;26.80;46.00;;;;;;5034115;28;20459;-70
2023/06/18 09:02:11;;;;;;;9.97;9.17;;;27.00;44.10;;;;;;5055863;28;20977;-68
2023/06/18 09:04:40;;;;;;;11.13;10.13;;;27.20;44.60;;;;;;5040127;28;20994;-70
2023/06/18 09:07:09;;;;;;;10.13;9.20;;;27.40;42.40;;;;;;5040134;28;20938;-70
2023/06/18 09:09:37;;;;;;;10.83;9.87;;;27.60;44.50;;;;;;5030744;28;20481;-71
2023/06/18 09:12:07;;;;;;;11.10;10.17;;;27.70;42.40;;;;;;5045572;28;20479;-71
2023/06/18 09:14:35;;;;;;;9.97;9.27;;;27.70;42.40;;;;;;5055053;28;20568;-69
2023/06/18 09:17:03;;;;;;;9.53;8.70;;;27.90;42.10;;;;;;5068752;28;20496;-71
2023/06/18 09:19:33;;;;;;;9.70;8.90;;;28.20;39.20;;;;;;5065817;28;21220;-70
2023/06/18 09:22:13;;;;;;;9.27;8.50;;;28.40;39.20;;;;;;5036711;28;20475;-70
2023/06/18 09:24:43;;;;;;;8.23;7.63;;;28.60;37.00;;;;;;5037581;28;20435;-70
2023/06/18 09:27:13;;;;;;;8.57;7.83;;;28.90;36.80;;;;;;5036889;28;20444;-71
2023/06/18 09:29:42;;;;;;;8.97;8.17;;;29.20;36.80;;;;;;5030506;28;21040;-71
2023/06/18 09:32:11;;;;;;;8.90;8.30;;;29.40;35.10;;;;;;5042972;28;20539;-71
2023/06/18 09:34:40;;;;;;;8.97;8.27;;;29.50;36.00;;;;;;5033739;28;20490;-71
2023/06/18 09:37:13;;;;;;;8.80;8.20;;;29.70;33.40;;;;;;5048788;28;20442;-71
2023/06/18 09:39:41;;;;;;;8.93;8.33;;;29.70;33.90;;;;;;5043101;28;20818;-71
2023/06/18 09:42:13;;;;;;;9.10;8.30;;;29.70;35.50;;;;;;5034687;28;20457;-71
2023/06/18 09:44:45;;;;;;;9.10;8.30;;;29.80;34.30;;;;;;5037631;28;20468;-71
2023/06/18 09:47:15;;;;;;;10.03;9.23;;;30.00;33.90;;;;;;5043423;28;20441;-71
2023/06/18 09:49:45;;;;;;;8.30;7.70;;;29.90;34.60;;;;;;5043370;28;20479;-71
2023/06/18 09:52:13;;;;;;;9.03;8.23;;;30.10;35.00;;;;;;5043414;28;20522;-70
2023/06/18 09:54:43;;;;;;;8.47;7.80;;;30.30;34.30;;;;;;5036980;28;20451;-71
2023/06/18 09:57:13;;;;;;;11.90;9.13;;;30.50;31.90;;;;;;5037678;28;20441;-70
2023/06/18 09:59:41;;;;;;;8.90;8.20;;;30.50;31.30;;;;;;5041809;28;20436;-71
2023/06/18 10:02:13;;;;;;;9.50;8.50;;;30.40;30.70;;;;;;5056502;28;20463;-70
2023/06/18 10:04:42;;;;;;;9.67;8.17;;;30.50;31.00;;;;;;5052601;28;21079;-71
2023/06/18 10:07:15;;;;;;;8.73;8.03;;;30.90;32.50;;;;;;5049788;28;20436;-71
2023/06/18 10:09:47;;;;;;;8.97;7.87;;;31.60;30.00;;;;;;5049626;28;20459;-72
2023/06/18 10:12:17;;;;;;;7.90;7.30;;;32.00;30.40;;;;;;5049254;28;20460;-75
2023/06/18 10:14:47;;;;;;;8.07;7.47;;;32.50;29.70;;;;;;5049224;28;20444;-68
2023/06/18 10:17:23;;;;;;;8.20;7.40;;;32.60;28.20;;;;;;5046513;28;20457;-69
2023/06/18 10:19:58;;;;;;;7.97;7.37;;;32.70;28.80;;;;;;5032118;28;20978;-70
2023/06/18 10:22:29;;;;;;;8.60;7.90;;;33.00;30.90;;;;;;5030373;28;20459;-71
2023/06/18 10:25:04;;;;;;;8.60;8.00;;;33.60;30.10;;;;;;5044504;28;20460;-71
2023/06/18 10:27:35;;;;;;;8.00;7.30;;;34.10;28.40;;;;;;5052552;28;20451;-74
2023/06/18 10:30:04;;;;;;;7.57;7.07;;;34.40;28.20;;;;;;5049585;28;20574;-69
2023/06/18 10:32:35;;;;;;;8.50;7.80;;;34.40;27.00;;;;;;5047346;28;20530;-68
2023/06/18 10:35:09;;;;;;;8.30;7.53;;;34.40;26.60;;;;;;5060540;28;20447;-69
2023/06/18 10:37:39;;;;;;;8.50;7.77;;;34.60;28.80;;;;;;5044531;28;20443;-68
2023/06/18 10:40:08;;;;;;;8.63;7.80;;;34.80;26.40;;;;;;5036397;28;20524;-69
2023/06/18 10:42:37;;;;;;;7.90;7.27;;;35.00;28.40;;;;;;5037158;28;20460;-70
2023/06/18 10:45:13;;;;;;;8.63;8.03;;;35.10;26.70;;;;;;5048589;28;20444;-69
2023/06/18 10:47:42;;;;;;;8.33;7.60;;;35.40;26.50;;;;;;5049654;28;20447;-74
2023/06/18 10:50:16;;;;;;;7.47;6.83;;;35.30;26.60;;;;;;5048819;28;20849;-70
2023/06/18 10:52:46;;;;;;;8.10;7.50;;;35.20;24.90;;;;;;5042516;28;21054;-68
2023/06/18 10:55:16;;;;;;;7.43;6.90;;;35.20;25.20;;;;;;5039338;28;20436;-70
2023/06/18 10:57:46;;;;;;;8.03;7.43;;;35.20;24.40;;;;;;5038496;28;20441;-69
2023/06/18 11:00:17;;;;;;;7.83;7.23;;;35.10;25.20;;;;;;5037125;28;20461;-69
2023/06/18 11:02:47;;;;;;;8.67;8.00;;;35.20;25.30;;;;;;5036392;28;20527;-69
2023/06/18 11:05:17;;;;;;;7.87;7.27;;;34.90;25.20;;;;;;5040274;28;20441;-69
2023/06/18 11:08:00;;;;;;;8.13;7.50;;;35.10;26.00;;;;;;5041798;28;20444;-69
2023/06/18 11:10:33;;;;;;;7.40;6.80;;;35.50;26.90;;;;;;5037913;28;20479;-70
2023/06/18 11:13:05;;;;;;;8.40;7.67;;;35.80;26.00;;;;;;5038293;28;20437;-68
2023/06/18 11:15:34;;;;;;;7.60;6.90;;;36.00;25.80;;;;;;5030628;28;20488;-67
2023/06/18 11:18:03;;;;;;;7.80;7.23;;;36.40;25.30;;;;;;5038998;28;21045;-69
2023/06/18 11:20:32;;;;;;;7.30;6.80;;;36.60;23.90;;;;;;5044053;28;20455;-67
2023/06/18 11:23:02;;;;;;;8.93;7.13;;;36.80;25.70;;;;;;5057340;28;20431;-69
2023/06/18 11:25:30;;;;;;;7.10;6.60;;;37.20;23.60;;;;;;5047140;28;20443;-70
2023/06/18 11:28:01;;;;;;;8.03;7.43;;;37.20;24.00;;;;;;5049840;28;20439;-69
2023/06/18 11:30:32;;;;;;;7.80;7.20;;;37.40;25.80;;;;;;5048175;28;21063;-69
2023/06/18 11:33:03;;;;;;;6.90;6.40;;;37.40;24.70;;;;;;5046193;28;20474;-69
2023/06/18 11:35:31;;;;;;;6.90;6.40;;;37.40;23.50;;;;;;5040907;28;20441;-68
2023/06/18 11:37:59;;;;;;;7.03;6.53;;;37.20;24.30;;;;;;5028058;28;20447;-69
2023/06/18 11:40:28;;;;;;;8.13;7.30;;;36.70;22.70;;;;;;5031924;28;20527;-68
2023/06/18 11:42:56;;;;;;;7.30;6.80;;;36.10;25.60;;;;;;5037981;28;20506;-68
2023/06/18 11:45:24;;;;;;;8.17;7.47;;;36.60;24.00;;;;;;5027173;28;20441;-70
2023/06/18 11:47:54;;;;;;;7.10;6.60;;;36.90;23.60;;;;;;5040887;28;20879;-69
2023/06/18 11:50:27;;;;;;;7.00;6.50;;;37.60;24.90;;;;;;5036343;28;20492;-69
2023/06/18 11:52:55;;;;;;;6.60;6.10;;;37.90;23.50;;;;;;5044255;28;20491;-69
2023/06/18 11:55:23;;;;;;;7.10;6.60;;;38.40;24.80;;;;;;5047825;28;20436;-68
2023/06/18 11:57:57;;;;;;;7.20;6.70;;;38.90;22.70;;;;;;5054556;28;20443;-66
2023/06/18 12:00:25;;;;;;;6.73;6.20;;;38.80;21.40;;;;;;5045921;28;20494;-70
2023/06/18 12:02:54;;;;;;;6.20;5.70;;;38.70;21.60;;;;;;5048226;28;20502;-70
2023/06/18 12:05:23;;;;;;;5.77;5.37;;;39.00;22.70;;;;;;5033681;28;20454;-71
2023/06/18 12:07:51;;;;;;;6.27;5.87;;;39.30;22.70;;;;;;5037756;28;20519;-69
2023/06/18 12:10:20;;;;;;;6.43;5.90;;;39.50;21.20;;;;;;5044195;28;20514;-69
2023/06/18 12:13:04;;;;;;;6.83;5.87;;;39.30;20.00;;;;;;5029503;28;20464;-70
2023/06/18 12:15:37;;;;;;;6.20;5.80;;;38.70;23.70;;;;;;5038760;28;20451;-69
2023/06/18 12:18:14;;;;;;;5.80;5.33;;;38.70;21.40;;;;;;5043534;28;20444;-68
2023/06/18 12:20:43;;;;;;;6.67;5.97;;;38.50;21.10;;;;;;5034829;28;20449;-70
2023/06/18 12:23:12;;;;;;;6.37;5.90;;;38.60;21.90;;;;;;5032714;28;20790;-70
2023/06/18 12:25:40;;;;;;;6.60;6.10;;;39.00;22.30;;;;;;5029938;28;20540;-71
2023/06/18 12:28:09;;;;;;;6.63;6.10;;;39.30;23.80;;;;;;5042212;28;20546;-71
2023/06/18 12:30:38;;;;;;;6.03;5.63;;;39.70;22.60;;;;;;5054422;28;20479;-71
2023/06/18 12:33:11;;;;;;;6.03;5.63;;;40.20;20.40;;;;;;5025079;28;20436;-70
2023/06/18 12:35:45;;;;;;;6.10;5.70;;;39.70;20.50;;;;;;5026809;28;20853;-73
2023/06/18 12:38:14;;;;;;;6.40;5.97;;;38.60;20.20;;;;;;5026536;28;20436;-71
2023/06/18 12:40:47;;;;;;;6.50;6.00;;;38.50;21.20;;;;;;5025994;28;20440;-71
2023/06/18 12:43:17;;;;;;;6.23;5.73;;;38.80;21.10;;;;;;5025592;28;20798;-71